createdAt,value
2022-09-23T00:01:51.983Z,7.85
2022-09-23T00:04:19.342Z,6.90
2022-09-23T00:06:46.666Z,8.02
2022-09-23T00:09:13.930Z,9.20
2022-09-23T00:11:41.081Z,10.48
2022-09-23T00:14:08.434Z,6.35
2022-09-23T00:16:38.905Z,9.10
2022-09-23T00:19:06.551Z,5.60
2022-09-23T00:21:33.803Z,10.55
2022-09-23T00:24:01.076Z,9.32
2022-09-23T00:26:28.319Z,10.23
2022-09-23T00:28:55.623Z,7.45
2022-09-23T00:31:22.843Z,9.10
2022-09-23T00:33:50.147Z,5.90
2022-09-23T00:36:17.392Z,8.45
2022-09-23T00:38:44.791Z,9.25
2022-09-23T00:41:12.039Z,10.32
2022-09-23T00:43:39.444Z,6.53
2022-09-23T00:46:06.725Z,7.05
2022-09-23T00:48:33.966Z,11.02
2022-09-23T00:51:01.208Z,5.30
2022-09-23T00:53:28.497Z,8.68
2022-09-23T00:55:55.763Z,8.40
2022-09-23T00:58:23.264Z,9.23
2022-09-23T01:00:50.561Z,9.07
2022-09-23T01:03:19.975Z,8.38
2022-09-23T01:05:47.229Z,14.05
2022-09-23T01:08:14.488Z,14.52
2022-09-23T01:10:41.667Z,9.63
2022-09-23T01:13:08.926Z,6.75
2022-09-23T01:15:36.391Z,12.02
2022-09-23T01:18:04.425Z,13.60
2022-09-23T01:20:34.079Z,11.45
2022-09-23T01:23:01.417Z,8.40
2022-09-23T01:25:28.780Z,9.00
2022-09-23T01:27:55.983Z,10.52
2022-09-23T01:30:23.663Z,11.43
2022-09-23T01:32:50.876Z,10.63
2022-09-23T01:35:18.077Z,9.15
2022-09-23T01:37:45.287Z,10.25
2022-09-23T01:40:12.575Z,20.75
2022-09-23T01:42:39.873Z,13.32
2022-09-23T01:45:07.821Z,10.88
2022-09-23T01:47:35.709Z,8.85
2022-09-23T01:50:02.934Z,12.05
2022-09-23T01:52:30.330Z,10.55
2022-09-23T01:54:57.694Z,8.20
2022-09-23T01:57:24.948Z,12.75
2022-09-23T01:59:52.177Z,12.88
2022-09-23T02:02:19.586Z,9.73
2022-09-23T02:04:47.233Z,10.02
2022-09-23T02:07:15.344Z,10.80
2022-09-23T02:09:42.557Z,17.92
2022-09-23T02:12:12.392Z,9.98
2022-09-23T02:14:39.614Z,10.35
2022-09-23T02:17:08.634Z,11.43
2022-09-23T02:19:37.025Z,9.30
2022-09-23T02:22:04.324Z,9.45
2022-09-23T02:24:31.612Z,18.88
2022-09-23T02:26:58.886Z,12.15
2022-09-23T02:29:26.968Z,10.25
2022-09-23T02:31:54.893Z,9.18
2022-09-23T02:34:22.131Z,11.10
2022-09-23T02:36:49.679Z,8.60
2022-09-23T02:39:16.889Z,13.63
2022-09-23T02:41:44.696Z,9.23
2022-09-23T02:44:11.878Z,7.28
2022-09-23T02:46:39.141Z,9.25
2022-09-23T02:49:06.284Z,12.70
2022-09-23T02:51:34.921Z,8.50
2022-09-23T02:54:03.562Z,9.10
2022-09-23T02:56:30.874Z,10.63
2022-09-23T02:58:58.065Z,12.35
2022-09-23T03:01:26.317Z,9.82
2022-09-23T03:03:53.872Z,11.88
2022-09-23T03:06:21.142Z,13.27
2022-09-23T03:08:49.501Z,10.50
2022-09-23T03:11:17.606Z,18.15
2022-09-23T03:13:46.884Z,8.35
2022-09-23T03:16:14.260Z,11.60
2022-09-23T03:18:41.492Z,11.38
2022-09-23T03:21:08.744Z,9.38
2022-09-23T03:23:35.925Z,8.35
2022-09-23T03:26:05.156Z,11.50
2022-09-23T03:28:33.111Z,9.98
2022-09-23T03:31:00.567Z,9.43
2022-09-23T03:33:28.979Z,8.18
2022-09-23T03:36:15.216Z,9.40
2022-09-23T03:38:42.874Z,12.68
2022-09-23T03:41:10.125Z,7.22
2022-09-23T03:43:38.924Z,9.70
2022-09-23T03:46:07.307Z,8.77
2022-09-23T03:48:34.776Z,7.22
2022-09-23T03:51:01.998Z,8.60
2022-09-23T03:53:29.188Z,8.13
2022-09-23T03:55:56.442Z,9.45
2022-09-23T03:58:23.760Z,10.02
2022-09-23T04:00:51.074Z,8.18
2022-09-23T04:03:19.182Z,12.63
2022-09-23T04:05:48.506Z,6.63
2022-09-23T04:08:15.780Z,12.93
2022-09-23T04:10:43.005Z,8.40
2022-09-23T04:13:10.384Z,7.13
2022-09-23T04:15:37.621Z,8.25
2022-09-23T04:18:04.858Z,9.82
2022-09-23T04:20:32.088Z,8.07
2022-09-23T04:22:59.315Z,13.82
2022-09-23T04:25:26.489Z,9.70
2022-09-23T04:27:53.787Z,10.32
2022-09-23T04:30:21.031Z,9.35
2022-09-23T04:32:48.370Z,14.45
2022-09-23T04:35:15.637Z,8.90
2022-09-23T04:37:42.864Z,12.30
2022-09-23T04:40:10.129Z,8.40
2022-09-23T04:42:37.608Z,7.97
2022-09-23T04:45:05.692Z,6.55
2022-09-23T04:47:33.030Z,9.07
2022-09-23T04:50:00.320Z,6.70
2022-09-23T04:52:27.544Z,7.60
2022-09-23T04:54:54.723Z,7.75
2022-09-23T04:57:21.954Z,6.07
2022-09-23T04:59:49.209Z,8.05
2022-09-23T05:02:16.522Z,15.82
2022-09-23T05:04:44.104Z,9.43
2022-09-23T05:07:11.761Z,9.25
2022-09-23T05:09:39.023Z,6.57
2022-09-23T05:12:06.278Z,8.25
2022-09-23T05:14:33.473Z,9.63
2022-09-23T05:17:00.691Z,7.70
2022-09-23T05:19:28.298Z,10.27
2022-09-23T05:21:55.565Z,8.90
2022-09-23T05:24:24.568Z,13.52
2022-09-23T05:26:54.665Z,9.30
2022-09-23T05:29:21.932Z,12.07
2022-09-23T05:31:49.363Z,13.43
2022-09-23T05:34:18.705Z,15.77
2022-09-23T05:36:45.856Z,14.90
2022-09-23T05:39:13.104Z,11.05
2022-09-23T05:41:41.687Z,13.45
2022-09-23T05:44:08.890Z,15.10
2022-09-23T05:46:36.342Z,11.05
2022-09-23T05:49:04.446Z,19.95
2022-09-23T05:51:31.980Z,15.43
2022-09-23T05:53:59.238Z,12.88
2022-09-23T05:56:26.744Z,17.15
2022-09-23T05:58:53.936Z,17.08
2022-09-23T06:01:21.545Z,10.65
2022-09-23T06:03:49.032Z,12.93
2022-09-23T06:06:16.374Z,18.30
2022-09-23T06:08:43.649Z,16.77
2022-09-23T06:11:12.187Z,13.82
2022-09-23T06:13:39.386Z,24.58
2022-09-23T06:16:08.141Z,13.35
2022-09-23T06:18:35.629Z,15.07
2022-09-23T06:21:03.097Z,14.40
2022-09-23T06:23:30.357Z,11.57
2022-09-23T06:26:01.071Z,17.30
2022-09-23T06:28:28.372Z,12.80
2022-09-23T06:30:56.549Z,13.45
2022-09-23T06:33:35.216Z,17.95
2022-09-23T06:36:03.744Z,16.45
2022-09-23T06:38:31.034Z,14.90
2022-09-23T06:40:58.561Z,17.63
2022-09-23T06:43:25.955Z,16.50
2022-09-23T06:45:53.439Z,15.75
2022-09-23T06:48:20.658Z,12.77
2022-09-23T06:50:49.432Z,14.80
2022-09-23T06:53:16.834Z,18.02
2022-09-23T06:55:44.192Z,14.05
2022-09-23T06:58:11.375Z,15.25
2022-09-23T07:00:38.650Z,17.58
2022-09-23T07:03:05.944Z,16.60
2022-09-23T07:05:33.316Z,16.45
2022-09-23T07:08:01.182Z,15.07
2022-09-23T07:10:29.315Z,16.80
2022-09-23T07:12:56.717Z,16.65
2022-09-23T07:15:24.031Z,16.75
2022-09-23T07:17:51.761Z,16.20
2022-09-23T07:20:19.129Z,16.13
2022-09-23T07:22:46.431Z,16.55
2022-09-23T07:25:13.709Z,13.68
2022-09-23T07:27:41.616Z,16.52
2022-09-23T07:30:17.796Z,14.02
2022-09-23T07:32:49.410Z,12.68
2022-09-23T07:35:16.924Z,13.90
2022-09-23T07:37:45.081Z,16.65
2022-09-23T07:40:12.668Z,14.27
2022-09-23T07:42:41.425Z,18.20
2022-09-23T07:45:09.072Z,17.50
2022-09-23T07:47:36.613Z,13.95
2022-09-23T07:50:03.883Z,14.20
2022-09-23T07:52:31.153Z,14.50
2022-09-23T07:54:58.462Z,13.88
2022-09-23T07:57:25.815Z,14.48
2022-09-23T07:59:53.152Z,13.52
2022-09-23T08:02:20.817Z,12.20
2022-09-23T08:04:48.225Z,13.35
2022-09-23T08:07:15.582Z,8.75
2022-09-23T08:09:42.760Z,11.15
2022-09-23T08:12:15.193Z,9.63
2022-09-23T08:14:43.601Z,8.63
2022-09-23T08:17:11.121Z,8.35
2022-09-23T08:19:38.436Z,8.75
2022-09-23T08:22:05.646Z,7.47
2022-09-23T08:24:32.892Z,9.93
2022-09-23T08:27:00.076Z,10.05
2022-09-23T08:29:27.365Z,10.07
2022-09-23T08:31:54.647Z,13.10
2022-09-23T08:34:21.943Z,12.32
2022-09-23T08:36:49.171Z,13.50
2022-09-23T08:39:16.477Z,13.70
2022-09-23T08:41:43.675Z,14.73
2022-09-23T08:44:11.950Z,15.75
2022-09-23T08:46:39.206Z,14.73
2022-09-23T08:49:07.764Z,21.98
2022-09-23T08:51:35.329Z,14.35
2022-09-23T08:54:02.730Z,20.33
2022-09-23T08:56:31.116Z,15.85
2022-09-23T08:58:58.529Z,15.88
2022-09-23T09:01:25.895Z,14.43
2022-09-23T09:03:53.937Z,12.27
2022-09-23T09:06:21.088Z,15.00
2022-09-23T09:08:48.354Z,14.25
2022-09-23T09:11:15.502Z,18.63
2022-09-23T09:13:43.879Z,14.20
2022-09-23T09:16:11.818Z,14.90
2022-09-23T09:18:40.780Z,14.63
2022-09-23T09:21:08.639Z,15.10
2022-09-23T09:23:35.978Z,15.73
2022-09-23T09:26:03.356Z,17.00
2022-09-23T09:28:35.781Z,13.43
2022-09-23T09:31:03.064Z,11.75
2022-09-23T09:33:30.928Z,12.82
2022-09-23T09:35:58.441Z,13.60
2022-09-23T09:38:25.929Z,16.10
2022-09-23T09:40:53.228Z,16.80
2022-09-23T09:43:23.651Z,12.65
2022-09-23T09:45:57.804Z,13.38
2022-09-23T09:48:25.423Z,15.13
2022-09-23T09:50:52.628Z,23.42
2022-09-23T09:53:21.092Z,27.17
2022-09-23T09:55:48.435Z,34.10
2022-09-23T09:58:16.958Z,29.23
2022-09-23T10:00:44.241Z,27.20
2022-09-23T10:03:11.509Z,28.10
2022-09-23T10:05:39.414Z,29.02
2022-09-23T10:08:06.679Z,33.08
2022-09-23T10:10:34.041Z,32.58
2022-09-23T10:13:02.531Z,40.35
2022-09-23T10:15:31.151Z,39.25
2022-09-23T10:18:01.264Z,32.53
2022-09-23T10:20:28.482Z,35.53
2022-09-23T10:22:56.763Z,31.48
2022-09-23T10:25:27.623Z,40.80
2022-09-23T10:27:54.847Z,37.58
2022-09-23T10:30:22.066Z,35.67
2022-09-23T10:32:49.535Z,36.40
2022-09-23T10:35:16.832Z,38.35
2022-09-23T10:37:44.168Z,36.30
2022-09-23T10:40:30.616Z,36.78
2022-09-23T10:43:16.943Z,35.72
2022-09-23T10:46:03.210Z,31.98
2022-09-23T10:48:30.538Z,34.60
2022-09-23T10:50:59.490Z,36.15
2022-09-23T10:53:28.238Z,38.60
2022-09-23T10:55:55.601Z,43.25
2022-09-23T10:58:22.990Z,36.97
2022-09-23T11:00:51.843Z,32.63
2022-09-23T11:03:19.229Z,33.47
2022-09-23T11:05:46.681Z,31.73
2022-09-23T11:08:13.897Z,36.42
2022-09-23T11:10:46.046Z,30.25
2022-09-23T11:13:13.881Z,36.42
2022-09-23T11:15:41.102Z,33.47
2022-09-23T11:18:08.347Z,35.63
2022-09-23T11:20:35.798Z,35.80
2022-09-23T11:23:05.721Z,33.83
2022-09-23T11:25:32.986Z,34.25
2022-09-23T11:28:00.528Z,33.85
2022-09-23T11:30:27.810Z,27.67
2022-09-23T11:32:55.427Z,24.52
2022-09-23T11:35:22.611Z,18.63
2022-09-23T11:37:49.830Z,16.83
2022-09-23T11:40:17.794Z,16.08
2022-09-23T11:42:45.983Z,14.75
2022-09-23T11:45:14.727Z,14.48
2022-09-23T11:47:42.492Z,15.40
2022-09-23T11:50:10.825Z,14.13
2022-09-23T11:52:38.106Z,17.05
2022-09-23T11:55:15.155Z,14.05
2022-09-23T11:57:48.859Z,15.95
2022-09-23T12:00:16.896Z,14.80
2022-09-23T12:02:45.368Z,16.23
2022-09-23T12:05:16.030Z,14.60
2022-09-23T12:07:43.581Z,14.27
2022-09-23T12:10:10.830Z,12.43
2022-09-23T12:12:38.295Z,9.40
2022-09-23T12:15:05.521Z,9.60
2022-09-23T12:17:33.021Z,9.07
2022-09-23T12:20:00.318Z,8.75
2022-09-23T12:22:27.859Z,7.93
2022-09-23T12:24:55.787Z,8.48
2022-09-23T12:27:24.167Z,9.18
2022-09-23T12:29:51.412Z,13.45
2022-09-23T12:32:18.724Z,13.07
2022-09-23T12:34:49.119Z,9.30
2022-09-23T12:37:16.552Z,13.10
2022-09-23T12:39:43.781Z,10.88
2022-09-23T12:42:10.985Z,9.05
2022-09-23T12:44:40.844Z,8.73
2022-09-23T12:47:08.074Z,10.88
2022-09-23T12:49:35.395Z,10.73
2022-09-23T12:52:02.630Z,6.65
2022-09-23T12:54:30.087Z,8.35
2022-09-23T12:56:57.316Z,8.43
2022-09-23T12:59:25.321Z,10.52
2022-09-23T13:01:52.579Z,11.07
2022-09-23T13:04:38.668Z,9.65
2022-09-23T13:07:05.870Z,9.00
2022-09-23T13:09:33.231Z,9.15
2022-09-23T13:12:00.492Z,8.32
2022-09-23T13:14:27.907Z,8.10
2022-09-23T13:16:58.491Z,9.65
2022-09-23T13:19:26.093Z,10.02
2022-09-23T13:21:53.268Z,13.45
2022-09-23T13:24:20.557Z,8.27
2022-09-23T13:26:47.928Z,13.55
2022-09-23T13:29:15.169Z,8.52
2022-09-23T13:31:42.527Z,8.82
2022-09-23T13:34:10.156Z,7.32
2022-09-23T13:36:37.435Z,8.07
2022-09-23T13:39:04.652Z,9.25
2022-09-23T13:41:31.926Z,5.60
2022-09-23T13:43:59.248Z,4.68
2022-09-23T13:46:26.504Z,9.80
2022-09-23T13:48:56.914Z,6.07
2022-09-23T13:51:24.618Z,8.40
2022-09-23T13:53:51.792Z,5.28
2022-09-23T13:56:19.107Z,4.22
2022-09-23T13:58:46.437Z,7.63
2022-09-23T14:01:13.649Z,3.30
2022-09-23T14:03:40.936Z,2.90
2022-09-23T14:06:08.453Z,7.00
2022-09-23T14:08:36.027Z,5.18
2022-09-23T14:11:05.183Z,7.10
2022-09-23T14:13:32.688Z,8.82
2022-09-23T14:16:00.168Z,4.32
2022-09-23T14:18:27.644Z,5.35
2022-09-23T14:20:54.899Z,9.38
2022-09-23T14:23:22.089Z,6.80
2022-09-23T14:25:49.518Z,9.55
2022-09-23T14:28:16.784Z,6.07
2022-09-23T14:30:48.122Z,12.77
2022-09-23T14:33:15.443Z,7.55
2022-09-23T14:35:42.859Z,7.50
2022-09-23T14:38:42.843Z,8.60
2022-09-23T14:41:17.328Z,9.15
2022-09-23T14:43:44.738Z,8.43
2022-09-23T14:46:12.051Z,8.82
2022-09-23T14:48:39.549Z,7.88
2022-09-23T14:51:06.771Z,7.63
2022-09-23T14:53:34.166Z,12.55
2022-09-23T14:56:01.372Z,10.07
2022-09-23T14:58:28.703Z,13.73
2022-09-23T15:00:55.922Z,8.95
2022-09-23T15:03:23.247Z,7.57
2022-09-23T15:05:50.942Z,10.30
2022-09-23T15:08:18.239Z,10.65
2022-09-23T15:10:46.178Z,9.63
2022-09-23T15:13:13.575Z,9.23
2022-09-23T15:15:40.861Z,9.20
2022-09-23T15:18:08.207Z,15.10
2022-09-23T15:20:35.440Z,11.93
2022-09-23T15:23:02.622Z,8.63
2022-09-23T15:25:29.881Z,11.35
2022-09-23T15:27:57.212Z,10.32
2022-09-23T15:30:25.060Z,9.13
2022-09-23T15:32:52.411Z,11.15
2022-09-23T15:35:19.634Z,10.77
2022-09-23T15:37:46.988Z,11.15
2022-09-23T15:40:14.222Z,9.85
2022-09-23T15:42:41.566Z,9.43
2022-09-23T15:45:09.336Z,10.30
2022-09-23T15:47:36.978Z,13.25
2022-09-23T15:50:04.217Z,11.13
2022-09-23T15:52:31.580Z,11.05
2022-09-23T15:54:59.051Z,10.85
2022-09-23T15:57:26.278Z,9.93
2022-09-23T15:59:58.359Z,11.00
2022-09-23T16:02:25.937Z,14.07
2022-09-23T16:04:53.464Z,13.85
2022-09-23T16:07:21.304Z,12.35
2022-09-23T16:09:48.574Z,11.27
2022-09-23T16:12:15.987Z,12.75
2022-09-23T16:14:43.199Z,13.82
2022-09-23T16:17:10.446Z,11.05
2022-09-23T16:19:37.661Z,11.90
2022-09-23T16:22:05.018Z,10.95
2022-09-23T16:24:33.135Z,14.85
2022-09-23T16:27:00.764Z,12.23
2022-09-23T16:29:28.219Z,9.48
2022-09-23T16:31:55.792Z,10.85
2022-09-23T16:34:23.043Z,9.35
2022-09-23T16:36:50.351Z,6.60
2022-09-23T16:39:19.989Z,15.80
2022-09-23T16:41:47.937Z,9.32
2022-09-23T16:44:16.321Z,10.95
2022-09-23T16:46:43.799Z,12.82
2022-09-23T16:49:14.185Z,9.85
2022-09-23T16:51:41.454Z,10.60
2022-09-23T16:54:11.834Z,9.85
2022-09-23T16:56:39.108Z,12.05
2022-09-23T16:59:06.412Z,11.80
2022-09-23T17:01:52.734Z,11.80
2022-09-23T17:04:19.971Z,9.93
2022-09-23T17:06:50.243Z,10.65
2022-09-23T17:09:18.246Z,9.82
2022-09-23T17:11:47.827Z,14.43
2022-09-23T17:14:15.134Z,11.80
2022-09-23T17:16:42.364Z,12.25
2022-09-23T17:19:09.781Z,9.38
2022-09-23T17:21:37.138Z,10.32
2022-09-23T17:24:04.911Z,10.35
2022-09-23T17:26:32.186Z,13.10
2022-09-23T17:29:01.564Z,12.50
2022-09-23T17:31:28.976Z,11.90
2022-09-23T17:33:56.455Z,11.25
2022-09-23T17:36:23.609Z,11.98
2022-09-23T17:38:53.569Z,11.63
2022-09-23T17:41:21.078Z,12.30
2022-09-23T17:43:48.418Z,11.25
2022-09-23T17:46:18.185Z,13.43
2022-09-23T17:48:45.544Z,10.82
2022-09-23T17:51:13.782Z,8.63
2022-09-23T17:53:41.013Z,6.32
2022-09-23T17:56:08.283Z,7.45
2022-09-23T17:58:35.912Z,5.38
2022-09-23T18:01:03.357Z,6.68
2022-09-23T18:03:30.561Z,9.38
2022-09-23T18:05:57.804Z,8.60
2022-09-23T18:08:25.047Z,5.32
2022-09-23T18:10:52.377Z,6.25
2022-09-23T18:13:19.610Z,6.47
2022-09-23T18:15:46.983Z,11.98
2022-09-23T18:18:14.245Z,6.10
2022-09-23T18:20:41.438Z,9.38
2022-09-23T18:23:08.795Z,9.40
2022-09-23T18:25:39.520Z,10.80
2022-09-23T18:28:07.014Z,5.55
2022-09-23T18:30:34.227Z,8.23
2022-09-23T18:33:02.174Z,5.50
2022-09-23T18:35:32.858Z,5.82
2022-09-23T18:38:00.112Z,3.13
2022-09-23T18:40:27.361Z,10.02
2022-09-23T18:42:54.911Z,5.47
2022-09-23T18:45:22.217Z,8.63
2022-09-23T18:48:08.319Z,5.80
2022-09-23T18:50:43.737Z,6.57
2022-09-23T18:53:11.010Z,11.82
2022-09-23T18:55:38.300Z,6.03
2022-09-23T18:58:07.451Z,6.70
2022-09-23T19:00:35.026Z,5.97
2022-09-23T19:03:02.557Z,7.75
2022-09-23T19:05:29.854Z,4.03
2022-09-23T19:07:57.794Z,4.97
2022-09-23T19:10:25.562Z,8.38
2022-09-23T19:12:52.844Z,9.90
2022-09-23T19:15:20.258Z,6.53
2022-09-23T19:17:47.732Z,6.65
2022-09-23T19:20:14.997Z,12.48
2022-09-23T19:22:42.323Z,6.50
2022-09-23T19:25:09.516Z,6.82
2022-09-23T19:27:37.028Z,11.60
2022-09-23T19:30:05.486Z,7.10
2022-09-23T19:32:34.699Z,4.80
2022-09-23T19:35:01.974Z,5.95
2022-09-23T19:37:29.508Z,7.30
2022-09-23T19:39:56.858Z,7.05
2022-09-23T19:42:27.650Z,8.00
2022-09-23T19:44:55.159Z,11.75
2022-09-23T19:47:22.422Z,7.32
2022-09-23T19:49:49.749Z,8.95
2022-09-23T19:52:16.998Z,10.15
2022-09-23T19:54:45.201Z,11.48
2022-09-23T19:57:12.410Z,10.30
2022-09-23T19:59:40.168Z,7.07
2022-09-23T20:02:07.477Z,9.07
2022-09-23T20:04:35.491Z,8.18
2022-09-23T20:07:02.676Z,9.95
2022-09-23T20:09:29.974Z,7.13
2022-09-23T20:11:57.268Z,8.00
2022-09-23T20:14:27.182Z,13.68
2022-09-23T20:16:54.954Z,4.97
2022-09-23T20:19:22.417Z,5.68
2022-09-23T20:22:09.602Z,5.55
2022-09-23T20:24:36.907Z,9.45
2022-09-23T20:27:10.552Z,10.82
2022-09-23T20:29:37.761Z,9.93
2022-09-23T20:32:04.956Z,11.20
2022-09-23T20:34:33.825Z,7.78
2022-09-23T20:37:01.236Z,5.03
2022-09-23T20:39:28.508Z,9.43
2022-09-23T20:41:55.919Z,6.95
2022-09-23T20:44:23.296Z,5.70
2022-09-23T20:46:51.476Z,10.30
2022-09-23T20:49:19.610Z,11.00
2022-09-23T20:51:47.563Z,9.95
2022-09-23T20:54:14.956Z,4.55
2022-09-23T20:56:42.210Z,7.00
2022-09-23T20:59:09.434Z,6.68
2022-09-23T21:01:36.942Z,10.57
2022-09-23T21:04:05.955Z,11.25
2022-09-23T21:06:33.602Z,9.85
2022-09-23T21:09:00.898Z,7.40
2022-09-23T21:11:29.127Z,9.60
2022-09-23T21:13:56.609Z,4.03
2022-09-23T21:16:24.588Z,12.65
2022-09-23T21:18:52.664Z,9.48
2022-09-23T21:21:20.018Z,9.25
2022-09-23T21:23:47.605Z,11.18
2022-09-23T21:26:14.887Z,11.18
2022-09-23T21:28:42.103Z,10.38
2022-09-23T21:31:09.461Z,8.45
2022-09-23T21:33:37.535Z,9.57
2022-09-23T21:36:04.874Z,10.80
2022-09-23T21:38:32.484Z,11.15
2022-09-23T21:40:59.866Z,5.80
2022-09-23T21:43:28.174Z,7.68
2022-09-23T21:45:58.918Z,14.50
2022-09-23T21:48:26.627Z,6.18
2022-09-23T21:50:53.894Z,10.23
2022-09-23T21:53:21.242Z,11.77
2022-09-23T21:55:48.896Z,5.82
2022-09-23T21:58:16.153Z,10.65
2022-09-23T22:00:44.100Z,8.98
2022-09-23T22:03:12.081Z,9.10
2022-09-23T22:05:43.334Z,10.18
2022-09-23T22:08:10.667Z,12.18
2022-09-23T22:10:38.161Z,4.53
2022-09-23T22:13:10.456Z,5.78
2022-09-23T22:15:40.234Z,7.47
2022-09-23T22:18:08.002Z,13.90
2022-09-23T22:20:35.328Z,8.13
2022-09-23T22:23:02.592Z,9.35
2022-09-23T22:25:29.909Z,13.10
2022-09-23T22:28:16.002Z,7.65
2022-09-23T22:31:02.332Z,9.20
2022-09-23T22:33:29.795Z,7.00
2022-09-23T22:35:57.029Z,9.63
2022-09-23T22:38:24.257Z,5.05
2022-09-23T22:40:51.679Z,4.90
2022-09-23T22:43:19.067Z,6.88
2022-09-23T22:45:46.448Z,14.15
2022-09-23T22:48:14.645Z,10.48
2022-09-23T22:50:41.997Z,9.35
2022-09-23T22:53:11.031Z,11.18
2022-09-23T22:55:38.323Z,7.28
2022-09-23T22:58:27.641Z,4.13
2022-09-23T23:00:57.268Z,9.25
2022-09-23T23:03:26.810Z,6.18
2022-09-23T23:05:57.532Z,6.28
2022-09-23T23:08:27.313Z,12.45
2022-09-23T23:10:55.039Z,6.93
2022-09-23T23:13:22.385Z,10.32
2022-09-23T23:15:49.684Z,9.57
2022-09-23T23:18:17.053Z,9.00
2022-09-23T23:20:44.446Z,10.27
2022-09-23T23:23:11.858Z,8.77
2022-09-23T23:25:39.051Z,6.63
2022-09-23T23:28:06.302Z,13.30
2022-09-23T23:30:33.888Z,6.88
2022-09-23T23:33:01.128Z,9.60
2022-09-23T23:35:28.662Z,14.73
2022-09-23T23:37:56.170Z,6.80
2022-09-23T23:40:23.537Z,9.10
2022-09-23T23:42:50.917Z,10.35
2022-09-23T23:45:18.433Z,11.68
2022-09-23T23:47:46.380Z,9.52
2022-09-23T23:50:13.634Z,3.75
2022-09-23T23:52:41.191Z,11.20
2022-09-23T23:55:08.699Z,12.27
2022-09-23T23:57:36.002Z,7.60
